createdAt,value
2022-10-25T00:00:46.552Z,1.60
2022-10-25T00:03:34.955Z,2.13
2022-10-25T00:06:23.479Z,1.40
2022-10-25T00:09:12.075Z,1.50
2022-10-25T00:12:01.872Z,2.50
2022-10-25T00:14:50.339Z,1.63
2022-10-25T00:17:38.747Z,1.90
2022-10-25T00:20:27.174Z,1.37
2022-10-25T00:23:16.124Z,1.60
2022-10-25T00:26:05.347Z,1.97
2022-10-25T00:28:55.859Z,1.70
2022-10-25T00:31:44.350Z,1.53
2022-10-25T00:34:32.939Z,1.80
2022-10-25T00:37:21.334Z,1.60
2022-10-25T00:40:10.616Z,1.80
2022-10-25T00:42:59.048Z,1.80
2022-10-25T00:45:48.881Z,1.43
2022-10-25T00:48:37.525Z,1.90
2022-10-25T00:51:29.886Z,1.53
2022-10-25T00:57:15.486Z,1.90
2022-10-25T01:00:06.980Z,1.60
2022-10-25T01:05:50.931Z,1.83
2022-10-25T01:08:40.026Z,1.70
2022-10-25T01:11:28.526Z,1.20
2022-10-25T01:14:18.144Z,2.00
2022-10-25T01:17:11.349Z,1.77
2022-10-25T01:20:23.111Z,1.70
2022-10-25T01:23:27.442Z,1.60
2022-10-25T01:26:55.900Z,1.93
2022-10-25T01:30:06.547Z,1.60
2022-10-25T01:33:05.180Z,1.83
2022-10-25T01:35:58.389Z,1.80
2022-10-25T01:38:50.131Z,2.00
2022-10-25T01:41:45.829Z,2.30
2022-10-25T01:44:40.812Z,2.00
2022-10-25T01:47:35.440Z,1.93
2022-10-25T01:50:27.673Z,2.20
2022-10-25T01:53:16.248Z,1.70
2022-10-25T01:56:05.886Z,1.57
2022-10-25T01:59:19.794Z,1.80
2022-10-25T02:02:13.705Z,2.30
2022-10-25T02:05:08.094Z,2.20
2022-10-25T02:08:04.203Z,2.27
2022-10-25T02:11:01.849Z,2.50
2022-10-25T02:13:59.616Z,2.33
2022-10-25T02:16:51.289Z,2.20
2022-10-25T02:19:44.440Z,2.80
2022-10-25T02:22:33.781Z,2.60
2022-10-25T02:25:23.765Z,2.27
2022-10-25T02:28:14.055Z,2.87
2022-10-25T02:31:02.565Z,2.37
2022-10-25T02:33:51.341Z,2.27
2022-10-25T02:36:39.744Z,2.00
2022-10-25T02:39:31.394Z,2.73
2022-10-25T02:46:24.516Z,3.00
2022-10-25T02:49:13.022Z,2.60
2022-10-25T02:52:01.600Z,2.53
2022-10-25T02:54:50.024Z,2.30
2022-10-25T02:57:39.217Z,2.63
2022-10-25T03:00:29.832Z,2.40
2022-10-25T03:03:19.857Z,2.70
2022-10-25T03:06:10.050Z,2.53
2022-10-25T03:08:58.496Z,2.60
2022-10-25T03:11:46.924Z,2.37
2022-10-25T03:14:35.373Z,2.60
2022-10-25T03:17:23.792Z,2.17
2022-10-25T03:20:13.590Z,2.73
2022-10-25T03:23:02.143Z,2.67
2022-10-25T03:25:54.250Z,2.90
2022-10-25T03:28:43.076Z,2.27
2022-10-25T03:31:31.533Z,2.70
2022-10-25T03:34:19.957Z,2.93
2022-10-25T03:37:09.716Z,2.67
2022-10-25T03:39:58.120Z,2.83
2022-10-25T03:42:46.614Z,3.20
2022-10-25T03:45:35.050Z,2.27
2022-10-25T03:48:23.512Z,2.80
2022-10-25T03:51:12.009Z,2.60
2022-10-25T03:54:02.058Z,2.50
2022-10-25T03:56:51.541Z,2.33
2022-10-25T03:59:39.970Z,2.47
2022-10-25T04:02:28.862Z,3.20
2022-10-25T04:05:17.287Z,2.57
2022-10-25T04:08:06.155Z,2.43
2022-10-25T04:10:55.933Z,2.80
2022-10-25T04:13:44.414Z,2.50
2022-10-25T04:16:32.817Z,2.50
2022-10-25T04:19:21.256Z,2.53
2022-10-25T04:22:14.587Z,2.73
2022-10-25T04:25:03.039Z,2.57
2022-10-25T04:27:52.901Z,2.87
2022-10-25T04:30:41.330Z,2.83
2022-10-25T04:33:29.789Z,3.13
2022-10-25T04:36:18.384Z,2.67
2022-10-25T04:39:07.043Z,2.40
2022-10-25T04:41:55.575Z,2.20
2022-10-25T04:44:45.402Z,2.77
2022-10-25T04:47:34.025Z,2.70
2022-10-25T04:50:22.423Z,2.97
2022-10-25T04:53:10.873Z,2.50
2022-10-25T04:55:59.881Z,2.43
2022-10-25T04:58:48.303Z,3.10
2022-10-25T05:01:38.214Z,2.87
2022-10-25T05:04:26.694Z,2.70
2022-10-25T05:07:15.260Z,2.67
2022-10-25T05:10:03.718Z,2.63
2022-10-25T05:12:52.123Z,3.20
2022-10-25T05:15:40.569Z,3.07
2022-10-25T05:18:31.306Z,2.80
2022-10-25T05:21:19.864Z,2.67
2022-10-25T05:24:08.563Z,2.57
2022-10-25T05:26:57.014Z,2.73
2022-10-25T05:29:45.596Z,3.23
2022-10-25T05:32:34.014Z,2.77
2022-10-25T05:35:23.803Z,2.80
2022-10-25T05:38:12.251Z,3.00
2022-10-25T05:41:01.934Z,3.30
2022-10-25T05:43:50.347Z,3.00
2022-10-25T05:46:38.826Z,3.43
2022-10-25T05:49:27.330Z,3.33
2022-10-25T05:52:17.149Z,3.50
2022-10-25T05:55:06.344Z,3.30
2022-10-25T05:57:54.752Z,3.10
2022-10-25T06:00:43.200Z,2.93
2022-10-25T06:03:31.645Z,3.40
2022-10-25T06:06:21.011Z,3.50
2022-10-25T06:09:11.513Z,3.17
2022-10-25T06:11:59.959Z,2.83
2022-10-25T06:14:48.434Z,2.80
2022-10-25T06:17:37.000Z,2.90
2022-10-25T06:20:25.408Z,3.07
2022-10-25T06:23:13.891Z,2.80
2022-10-25T06:26:05.560Z,2.60
2022-10-25T06:28:55.373Z,3.10
2022-10-25T06:31:44.612Z,2.70
2022-10-25T06:34:33.115Z,2.80
2022-10-25T06:37:21.565Z,3.20
2022-10-25T06:40:11.670Z,2.87
2022-10-25T06:43:01.507Z,3.17
2022-10-25T06:45:49.920Z,3.00
2022-10-25T06:48:38.417Z,3.00
2022-10-25T06:51:28.746Z,2.37
2022-10-25T06:54:17.335Z,2.70
2022-10-25T06:57:05.982Z,2.77
2022-10-25T06:59:55.759Z,2.30
2022-10-25T07:02:44.328Z,1.83
2022-10-25T07:05:32.843Z,2.10
2022-10-25T07:08:21.809Z,2.27
2022-10-25T07:11:14.338Z,2.10
2022-10-25T07:14:04.272Z,1.90
2022-10-25T07:16:54.068Z,1.83
2022-10-25T07:19:42.470Z,2.17
2022-10-25T07:22:30.939Z,2.13
2022-10-25T07:25:19.372Z,2.37
2022-10-25T07:28:07.848Z,2.20
2022-10-25T07:30:56.345Z,2.10
2022-10-25T07:33:46.158Z,3.17
2022-10-25T07:36:35.212Z,2.03
2022-10-25T07:39:23.590Z,2.50
2022-10-25T07:42:12.020Z,2.20
2022-10-25T07:45:00.405Z,2.50
2022-10-25T07:47:51.868Z,2.47
2022-10-25T07:50:41.679Z,2.37
2022-10-25T07:53:30.124Z,2.00
2022-10-25T07:56:23.163Z,1.90
2022-10-25T07:59:12.382Z,1.90
2022-10-25T08:02:00.849Z,1.90
2022-10-25T08:04:51.094Z,2.23
2022-10-25T08:07:43.326Z,1.53
2022-10-25T08:10:31.785Z,1.97
2022-10-25T08:13:20.589Z,1.93
2022-10-25T08:16:09.754Z,2.17
2022-10-25T08:18:58.213Z,2.63
2022-10-25T08:21:47.411Z,2.27
2022-10-25T08:24:38.602Z,1.60
2022-10-25T08:27:27.043Z,2.27
2022-10-25T08:30:16.004Z,2.30
2022-10-25T08:33:07.281Z,2.40
2022-10-25T08:36:00.871Z,2.60
2022-10-25T08:38:49.295Z,2.40
2022-10-25T08:41:44.393Z,2.83
2022-10-25T08:44:39.808Z,2.00
2022-10-25T08:47:31.907Z,1.90
2022-10-25T08:50:21.935Z,2.60
2022-10-25T08:53:15.786Z,2.33
2022-10-25T08:56:16.076Z,2.33
2022-10-25T08:59:06.823Z,2.93
2022-10-25T09:01:57.902Z,2.23
2022-10-25T09:04:46.572Z,2.37
2022-10-25T09:07:45.444Z,2.40
2022-10-25T09:10:46.282Z,3.93
2022-10-25T09:13:41.429Z,2.27
2022-10-25T09:16:34.920Z,2.50
2022-10-25T09:19:42.251Z,3.90
2022-10-25T09:22:32.027Z,2.70
2022-10-25T09:25:23.947Z,3.00
2022-10-25T09:28:16.364Z,2.60
2022-10-25T09:31:05.976Z,2.80
2022-10-25T09:34:03.958Z,2.30
2022-10-25T09:36:56.214Z,2.33
2022-10-25T09:39:47.397Z,2.60
2022-10-25T09:42:39.460Z,1.90
2022-10-25T09:45:31.110Z,2.57
2022-10-25T09:48:23.952Z,2.47
2022-10-25T09:51:19.094Z,2.30
2022-10-25T09:54:16.807Z,2.30
2022-10-25T09:57:05.424Z,3.20
2022-10-25T09:59:53.872Z,2.90
2022-10-25T10:02:42.470Z,2.90
2022-10-25T10:05:31.615Z,2.60
2022-10-25T10:08:21.443Z,1.90
2022-10-25T10:11:15.485Z,2.63
2022-10-25T10:14:09.972Z,2.33
2022-10-25T10:16:58.974Z,2.20
2022-10-25T10:20:08.420Z,2.30
2022-10-25T10:22:56.849Z,1.83
2022-10-25T10:25:46.739Z,2.10
2022-10-25T10:28:35.985Z,2.27
2022-10-25T10:31:24.607Z,1.80
2022-10-25T10:34:27.694Z,2.20
2022-10-25T10:37:17.550Z,2.93
2022-10-25T10:40:24.811Z,2.20
2022-10-25T10:43:30.557Z,2.13
2022-10-25T10:46:21.158Z,2.70
2022-10-25T10:49:11.325Z,1.80
2022-10-25T10:51:59.748Z,1.90
2022-10-25T10:54:50.593Z,2.37
2022-10-25T10:57:39.022Z,1.90
2022-10-25T11:00:29.889Z,1.93
2022-10-25T11:03:59.045Z,2.57
2022-10-25T11:06:48.839Z,2.00
2022-10-25T11:09:37.307Z,1.80
2022-10-25T11:12:25.818Z,2.17
2022-10-25T11:15:15.202Z,1.97
2022-10-25T11:18:06.256Z,2.30
2022-10-25T11:20:56.677Z,1.83
2022-10-25T11:23:55.244Z,1.73
2022-10-25T11:26:54.209Z,2.43
2022-10-25T11:29:58.894Z,1.80
2022-10-25T11:33:15.689Z,1.77
2022-10-25T11:36:15.652Z,1.80
2022-10-25T11:39:13.627Z,2.63
2022-10-25T11:42:09.467Z,2.10
2022-10-25T11:45:20.161Z,1.87
2022-10-25T11:48:22.447Z,2.00
2022-10-25T11:51:18.170Z,1.70
2022-10-25T11:54:17.485Z,2.30
2022-10-25T11:57:15.172Z,2.00
2022-10-25T12:00:10.267Z,1.83
2022-10-25T12:03:11.708Z,2.70
2022-10-25T12:06:13.611Z,1.93
2022-10-25T12:09:08.731Z,2.10
2022-10-25T12:12:01.010Z,2.03
2022-10-25T12:14:55.092Z,2.13
2022-10-25T12:17:43.980Z,1.90
2022-10-25T12:20:32.789Z,1.90
2022-10-25T12:23:25.719Z,1.60
2022-10-25T12:26:21.138Z,1.70
2022-10-25T12:29:14.990Z,1.70
2022-10-25T12:32:04.727Z,3.37
2022-10-25T12:34:54.419Z,2.47
2022-10-25T12:37:48.982Z,1.70
2022-10-25T12:40:45.000Z,1.93
2022-10-25T12:43:36.746Z,2.20
2022-10-25T12:46:40.384Z,1.87
2022-10-25T12:49:44.525Z,1.97
2022-10-25T12:52:35.416Z,1.80
2022-10-25T12:55:34.609Z,2.00
2022-10-25T12:58:46.993Z,1.50
2022-10-25T13:01:58.603Z,2.10
2022-10-25T13:05:01.437Z,2.30
2022-10-25T13:07:51.120Z,2.50
2022-10-25T13:10:43.809Z,1.90
2022-10-25T13:13:34.717Z,1.60
2022-10-25T13:16:24.811Z,1.70
2022-10-25T13:19:49.842Z,1.60
2022-10-25T13:22:39.630Z,1.63
2022-10-25T13:25:57.968Z,1.70
2022-10-25T13:28:48.832Z,1.80
2022-10-25T13:31:48.613Z,1.83
2022-10-25T13:34:37.436Z,2.00
2022-10-25T13:37:42.013Z,2.20
2022-10-25T13:40:31.628Z,2.10
2022-10-25T13:43:21.484Z,1.73
2022-10-25T13:46:12.550Z,1.57
2022-10-25T13:49:02.579Z,1.50
2022-10-25T13:51:51.140Z,1.50
2022-10-25T13:54:44.984Z,1.93
2022-10-25T13:57:50.772Z,1.93
2022-10-25T14:00:41.314Z,2.13
2022-10-25T14:03:47.339Z,1.60
2022-10-25T14:06:36.725Z,1.70
2022-10-25T14:09:27.081Z,1.90
2022-10-25T14:12:20.398Z,1.90
2022-10-25T14:15:10.906Z,1.40
2022-10-25T14:17:59.708Z,2.17
2022-10-25T14:20:51.303Z,1.40
2022-10-25T14:23:39.843Z,1.87
2022-10-25T14:26:28.280Z,1.50
2022-10-25T14:29:20.263Z,1.80
2022-10-25T14:32:13.349Z,1.60
2022-10-25T14:35:01.771Z,1.97
2022-10-25T14:37:51.702Z,1.83
2022-10-25T14:40:40.229Z,1.73
2022-10-25T14:43:30.481Z,1.80
2022-10-25T14:46:20.131Z,1.90
2022-10-25T14:49:10.674Z,1.70
2022-10-25T14:52:01.742Z,1.70
2022-10-25T14:54:56.723Z,1.50
2022-10-25T14:57:46.496Z,1.60
2022-10-25T15:00:34.960Z,1.93
2022-10-25T15:03:23.894Z,1.80
2022-10-25T15:06:13.227Z,2.13
2022-10-25T15:09:37.314Z,2.10
2022-10-25T15:12:19.947Z,1.60
2022-10-25T15:15:34.474Z,2.50
2022-10-25T15:18:30.086Z,1.93
2022-10-25T15:21:19.018Z,1.80
2022-10-25T15:24:16.151Z,1.90
2022-10-25T15:27:06.491Z,2.00
2022-10-25T15:29:56.280Z,1.87
2022-10-25T15:32:44.938Z,1.60
2022-10-25T15:35:35.371Z,2.10
2022-10-25T15:38:41.886Z,1.80
2022-10-25T15:41:36.533Z,1.97
2022-10-25T15:44:24.970Z,2.47
2022-10-25T15:47:23.487Z,2.37
2022-10-25T15:50:14.981Z,1.70
2022-10-25T15:53:03.437Z,1.80
2022-10-25T15:55:52.587Z,2.17
2022-10-25T15:58:41.072Z,2.40
2022-10-25T16:01:29.714Z,2.50
2022-10-25T16:04:20.140Z,2.03
2022-10-25T16:07:10.343Z,1.90
2022-10-25T16:09:58.775Z,2.50
2022-10-25T16:12:50.438Z,2.40
2022-10-25T16:15:39.088Z,2.10
2022-10-25T16:18:27.556Z,2.33
2022-10-25T16:21:19.607Z,2.40
2022-10-25T16:24:08.212Z,2.63
2022-10-25T16:26:56.724Z,2.60
2022-10-25T16:29:46.981Z,2.33
2022-10-25T16:32:35.462Z,3.10
2022-10-25T16:35:24.648Z,2.70
2022-10-25T16:38:15.611Z,3.33
2022-10-25T16:41:04.060Z,4.23
2022-10-25T16:43:52.743Z,2.90
2022-10-25T16:46:41.179Z,3.77
2022-10-25T16:49:29.673Z,3.67
2022-10-25T16:52:19.101Z,4.57
2022-10-25T16:55:11.217Z,3.20
2022-10-25T16:58:00.592Z,3.50
2022-10-25T17:00:49.644Z,3.20
2022-10-25T17:03:38.163Z,3.93
2022-10-25T17:06:40.812Z,4.00
2022-10-25T17:09:30.421Z,3.80
2022-10-25T17:12:20.243Z,4.10
2022-10-25T17:15:09.997Z,5.53
2022-10-25T17:17:58.616Z,5.30
2022-10-25T17:20:47.036Z,4.87
2022-10-25T17:23:35.668Z,3.83
2022-10-25T17:26:24.193Z,5.13
2022-10-25T17:28:54.070Z,5.00
2022-10-25T17:31:22.252Z,5.80
2022-10-25T17:34:10.193Z,5.93
2022-10-25T17:39:25.630Z,5.83
2022-10-25T17:41:53.920Z,4.37
2022-10-25T17:44:23.419Z,3.67
2022-10-25T17:46:52.044Z,4.03
2022-10-25T17:49:20.316Z,5.00
2022-10-25T17:51:48.723Z,4.13
2022-10-25T17:54:18.860Z,4.33
2022-10-25T17:56:47.079Z,5.00
2022-10-25T17:59:15.291Z,3.90
2022-10-25T18:01:45.067Z,4.17
2022-10-25T18:04:13.396Z,4.70
2022-10-25T18:07:00.133Z,3.80
2022-10-25T18:09:28.849Z,4.00
2022-10-25T18:11:57.140Z,3.67
2022-10-25T18:14:43.738Z,4.70
2022-10-25T18:17:33.625Z,4.87
2022-10-25T18:20:22.277Z,5.23
2022-10-25T18:23:13.436Z,4.30
2022-10-25T18:26:02.094Z,6.00
2022-10-25T18:28:50.807Z,5.30
2022-10-25T18:31:20.478Z,5.50
2022-10-25T18:34:08.466Z,5.23
2022-10-25T18:36:57.033Z,4.90
2022-10-25T18:39:45.503Z,4.73
2022-10-25T18:42:35.714Z,5.10
2022-10-25T18:48:18.455Z,5.30
2022-10-25T18:51:10.984Z,5.77
2022-10-25T18:54:01.493Z,6.27
2022-10-25T18:56:49.976Z,6.17
2022-10-25T18:59:38.454Z,5.27
2022-10-25T19:02:27.009Z,6.47
2022-10-25T19:05:15.681Z,5.00
2022-10-25T19:08:05.896Z,5.50
2022-10-25T19:10:54.357Z,6.03
2022-10-25T19:13:47.457Z,6.70
2022-10-25T19:16:40.677Z,6.03
2022-10-25T19:19:29.162Z,4.70
2022-10-25T19:22:17.588Z,5.63
2022-10-25T19:25:07.886Z,4.77
2022-10-25T19:27:56.813Z,5.20
2022-10-25T19:30:45.285Z,4.67
2022-10-25T19:33:33.888Z,5.50
2022-10-25T19:36:22.316Z,5.00
2022-10-25T19:39:10.819Z,5.37
2022-10-25T19:42:00.646Z,4.73
2022-10-25T19:44:49.434Z,4.57
2022-10-25T19:47:40.265Z,4.87
2022-10-25T19:50:28.812Z,4.23
2022-10-25T19:53:19.282Z,4.83
2022-10-25T19:56:09.335Z,5.50
2022-10-25T19:58:59.235Z,5.00
2022-10-25T20:01:49.209Z,4.43
2022-10-25T20:04:37.713Z,4.37
2022-10-25T20:07:26.148Z,4.73
2022-10-25T20:10:14.722Z,5.73
2022-10-25T20:13:04.818Z,4.90
2022-10-25T20:15:55.732Z,5.93
2022-10-25T20:18:44.243Z,4.57
2022-10-25T20:21:34.360Z,4.57
2022-10-25T20:24:23.321Z,5.03
2022-10-25T20:27:11.838Z,4.37
2022-10-25T20:30:00.321Z,4.27
2022-10-25T20:32:50.167Z,4.83
2022-10-25T20:35:39.080Z,5.13
2022-10-25T20:38:27.527Z,5.30
2022-10-25T20:41:17.707Z,5.33
2022-10-25T20:44:07.135Z,5.83
2022-10-25T20:46:55.631Z,4.83
2022-10-25T20:49:45.439Z,5.80
2022-10-25T20:52:34.779Z,5.90
2022-10-25T20:55:23.763Z,6.27
2022-10-25T20:58:12.515Z,5.97
2022-10-25T21:01:01.504Z,5.27
2022-10-25T21:03:49.994Z,5.40
2022-10-25T21:06:39.795Z,5.03
2022-10-25T21:09:28.212Z,5.17
2022-10-25T21:12:16.629Z,4.50
2022-10-25T21:15:09.450Z,5.20
2022-10-25T21:18:00.522Z,5.13
2022-10-25T21:20:49.455Z,5.37
2022-10-25T21:23:39.255Z,4.63
2022-10-25T21:26:27.702Z,5.27
2022-10-25T21:29:16.109Z,5.40
2022-10-25T21:32:04.633Z,5.27
2022-10-25T21:34:53.031Z,4.90
2022-10-25T21:37:44.293Z,6.10
2022-10-25T21:40:36.710Z,5.80
2022-10-25T21:43:25.353Z,5.60
2022-10-25T21:46:15.531Z,5.00
2022-10-25T21:49:03.972Z,3.80
2022-10-25T21:51:52.379Z,3.80
2022-10-25T21:54:40.793Z,4.87
2022-10-25T21:57:30.811Z,4.40
2022-10-25T22:00:19.421Z,4.67
2022-10-25T22:03:07.841Z,5.03
2022-10-25T22:05:56.309Z,4.07
2022-10-25T22:08:45.501Z,4.47
2022-10-25T22:11:35.517Z,4.23
2022-10-25T22:14:25.352Z,3.97
2022-10-25T22:17:13.750Z,4.23
2022-10-25T22:20:02.220Z,4.23
2022-10-25T22:22:50.973Z,4.90
2022-10-25T22:25:39.745Z,4.50
2022-10-25T22:28:28.232Z,5.10
2022-10-25T22:31:18.754Z,4.90
2022-10-25T22:34:08.621Z,5.00
2022-10-25T22:36:57.127Z,4.97
2022-10-25T22:39:45.536Z,3.77
2022-10-25T22:42:34.005Z,4.83
2022-10-25T22:45:22.424Z,4.27
2022-10-25T22:48:12.210Z,4.90
2022-10-25T22:51:01.066Z,4.50
2022-10-25T22:53:49.485Z,5.20
2022-10-25T22:56:38.468Z,6.00
2022-10-25T22:59:26.872Z,5.60
2022-10-25T23:02:15.335Z,5.30
2022-10-25T23:05:05.576Z,4.50
2022-10-25T23:07:54.426Z,4.53
2022-10-25T23:10:42.845Z,4.50
2022-10-25T23:13:33.232Z,4.60
2022-10-25T23:16:21.660Z,4.70
2022-10-25T23:19:10.062Z,4.10
2022-10-25T23:21:59.895Z,4.13
2022-10-25T23:24:48.284Z,4.60
2022-10-25T23:27:36.668Z,4.40
2022-10-25T23:30:26.806Z,4.10
2022-10-25T23:33:15.405Z,4.03
2022-10-25T23:36:04.960Z,3.80
2022-10-25T23:38:55.718Z,3.73
2022-10-25T23:41:44.310Z,3.60
2022-10-25T23:44:32.679Z,3.40
2022-10-25T23:47:21.099Z,2.97
2022-10-25T23:50:10.550Z,3.80
2022-10-25T23:52:58.981Z,2.83
2022-10-25T23:55:48.763Z,3.63
2022-10-25T23:58:37.437Z,3.37
